Time;durP1;ratioP1;P1;durP2;ratioP2;P2;SDS_P1;SDS_P2;PMS_P1;PMS_P2;Temp;Humidity;BMP_temperature;BMP_pressure;BME280_temperature;BME280_humidity;BME280_pressure;Samples;Min_cycle;Max_cycle;Signal;HPM_P1;HPM_P2
2022/03/20 00:00:25;;;;;;;11.77;6.65;;;;;;;;;;5006571;28;20461;-67
2022/03/20 00:02:51;;;;;;;10.40;6.50;;;;;;;;;;5013374;28;20939;-67
2022/03/20 00:05:17;;;;;;;10.63;6.80;;;;;;;;;;4997440;28;20459;-67
2022/03/20 00:07:44;;;;;;;11.13;7.13;;;5.30;99.90;;;;;;5012133;28;20426;-67
2022/03/20 00:10:11;;;;;;;13.00;7.03;;;;;;;;;;5011909;28;20414;-67
2022/03/20 00:12:37;;;;;;;12.33;6.73;;;;;;;;;;5006549;28;20419;-67
2022/03/20 00:15:04;;;;;;;10.73;6.60;;;5.10;99.90;;;;;;5005398;28;20500;-67
2022/03/20 00:17:30;;;;;;;10.63;6.88;;;;;;;;;;5001731;28;20456;-67
2022/03/20 00:19:57;;;;;;;12.90;6.97;;;;;;;;;;5000084;28;20782;-67
2022/03/20 00:22:23;;;;;;;10.93;7.07;;;;;;;;;;4998216;28;20435;-67
2022/03/20 00:24:50;;;;;;;11.35;7.10;;;;;;;;;;5041252;28;20503;-67
2022/03/20 00:27:16;;;;;;;10.25;6.78;;;;;;;;;;4995029;28;20448;-67
2022/03/20 00:29:42;;;;;;;12.50;7.10;;;;;;;;;;5005779;28;20435;-67
2022/03/20 00:32:10;;;;;;;10.30;6.90;;;4.80;99.90;;;;;;5004785;28;20512;-67
2022/03/20 00:34:39;;;;;;;12.27;7.18;;;;;;;;;;5012060;28;20919;-67
2022/03/20 00:37:06;;;;;;;10.88;7.15;;;;;;;;;;5015955;28;20492;-67
2022/03/20 00:39:33;;;;;;;12.63;7.07;;;;;;;;;;5013838;28;20496;-67
2022/03/20 00:41:59;;;;;;;11.13;6.85;;;;;;;;;;5006043;28;21347;-67
2022/03/20 00:44:25;;;;;;;10.80;7.43;;;;;;;;;;5004700;28;20508;-67
2022/03/20 00:46:51;;;;;;;10.70;6.80;;;5.20;99.90;;;;;;5013267;28;20496;-67
2022/03/20 00:49:17;;;;;;;11.73;7.25;;;;;;;;;;5016497;28;20835;-67
2022/03/20 00:51:43;;;;;;;11.77;6.95;;;4.90;99.90;;;;;;5004975;28;20452;-67
2022/03/20 00:54:10;;;;;;;10.68;7.28;;;;;;;;;;4996312;28;20432;-67
2022/03/20 00:56:37;;;;;;;10.20;7.00;;;;;;;;;;5015714;28;20517;-67
2022/03/20 00:59:03;;;;;;;10.07;6.82;;;;;;;;;;5013608;28;20492;-67
2022/03/20 01:01:29;;;;;;;11.30;7.17;;;;;;;;;;5003451;28;20469;-66
2022/03/20 01:03:56;;;;;;;11.43;7.40;;;4.60;99.90;;;;;;5008210;28;20429;-67
2022/03/20 01:06:22;;;;;;;10.32;7.05;;;;;;;;;;5002282;28;21053;-67
2022/03/20 01:08:55;;;;;;;12.73;7.32;;;;;;;;;;4993784;28;20441;-66
2022/03/20 01:11:21;;;;;;;12.60;7.47;;;;;;;;;;4992831;28;20431;-67
2022/03/20 01:13:47;;;;;;;12.50;7.68;;;;;;;;;;4999599;28;20425;-66
2022/03/20 01:16:13;;;;;;;12.35;7.65;;;;;;;;;;5010649;28;20452;-66
2022/03/20 01:18:39;;;;;;;12.20;7.45;;;;;;;;;;5005663;28;20431;-67
2022/03/20 01:21:05;;;;;;;11.03;7.73;;;4.50;99.90;;;;;;5002314;28;20472;-66
2022/03/20 01:23:31;;;;;;;11.88;7.35;;;;;;;;;;5006620;28;20409;-67
2022/03/20 01:25:58;;;;;;;10.48;7.55;;;;;;;;;;5011743;28;20436;-66
2022/03/20 01:28:24;;;;;;;12.60;7.57;;;;;;;;;;5005731;28;20428;-67
2022/03/20 01:30:51;;;;;;;12.02;7.38;;;;;;;;;;5002035;28;20438;-67
2022/03/20 01:33:18;;;;;;;13.63;7.90;;;;;;;;;;5012584;28;20413;-68
2022/03/20 01:35:44;;;;;;;12.60;7.97;;;;;;;;;;5007416;28;20472;-68
2022/03/20 01:38:10;;;;;;;14.77;8.35;;;;;;;;;;5001535;28;20471;-67
2022/03/20 01:40:37;;;;;;;14.00;8.18;;;;;;;;;;4998372;28;20491;-68
2022/03/20 01:43:04;;;;;;;14.25;8.25;;;;;;;;;;5007748;28;20439;-68
2022/03/20 01:45:30;;;;;;;15.75;8.07;;;;;;;;;;5009255;28;20458;-68
2022/03/20 01:47:56;;;;;;;12.40;7.65;;;;;;;;;;5007857;28;20425;-67
2022/03/20 01:50:27;;;;;;;13.10;7.88;;;;;;;;;;4990439;28;20524;-68
2022/03/20 01:52:54;;;;;;;13.77;8.70;;;;;;;;;;4995624;28;20794;-68
2022/03/20 01:55:22;;;;;;;13.35;8.23;;;4.40;99.90;;;;;;5014240;28;20526;-67
2022/03/20 01:57:49;;;;;;;15.32;8.68;;;;;;;;;;5008789;28;20421;-67
2022/03/20 02:00:17;;;;;;;12.40;8.60;;;;;;;;;;4997510;28;20533;-67
2022/03/20 02:02:43;;;;;;;14.85;8.70;;;;;;;;;;5004818;28;21187;-67
2022/03/20 02:05:09;;;;;;;14.00;8.60;;;;;;;;;;5001443;28;20520;-67
2022/03/20 02:07:37;;;;;;;14.88;9.18;;;;;;;;;;4995447;28;20434;-68
2022/03/20 02:10:04;;;;;;;13.50;8.68;;;;;;;;;;4997008;28;20434;-68
2022/03/20 02:12:30;;;;;;;14.80;9.00;;;;;;;;;;4994828;28;20528;-67
2022/03/20 02:15:01;;;;;;;13.75;9.00;;;;;;;;;;5009288;28;20488;-68
2022/03/20 02:17:29;;;;;;;15.55;9.27;;;;;;;;;;5005662;28;20468;-68
2022/03/20 02:19:59;;;;;;;15.43;8.88;;;;;;;;;;4993687;28;20833;-67
2022/03/20 02:22:25;;;;;;;15.18;9.27;;;;;;;;;;4995884;28;20440;-66
2022/03/20 02:24:52;;;;;;;16.17;9.82;;;4.40;99.90;;;;;;5009807;28;20430;-67
2022/03/20 02:27:23;;;;;;;15.80;9.23;;;;;;;;;;5007733;28;20436;-67
2022/03/20 02:29:52;;;;;;;13.05;9.30;;;4.10;99.90;;;;;;4990191;28;20440;-67
2022/03/20 02:32:19;;;;;;;14.35;9.57;;;;;;;;;;5011392;28;20927;-67
2022/03/20 02:34:48;;;;;;;14.95;9.80;;;;;;;;;;4998896;28;21027;-66
2022/03/20 02:37:15;;;;;;;14.77;8.93;;;;;;;;;;5004381;28;20500;-67
2022/03/20 02:39:41;;;;;;;15.50;9.60;;;;;;;;;;5004069;28;20446;-67
2022/03/20 02:42:08;;;;;;;16.30;9.73;;;;;;;;;;4998551;28;20459;-67
2022/03/20 02:45:00;;;;;;;16.42;9.93;;;;;;;;;;4996183;28;20436;-67
2022/03/20 02:47:27;;;;;;;16.10;10.50;;;;;;;;;;5008398;28;20424;-67
2022/03/20 02:49:57;;;;;;;16.50;10.05;;;;;;;;;;5001702;28;20562;-67
2022/03/20 02:52:26;;;;;;;16.65;10.10;;;;;;;;;;5002135;28;20449;-67
2022/03/20 02:54:52;;;;;;;16.10;10.63;;;;;;;;;;5006640;28;20992;-67
2022/03/20 02:57:19;;;;;;;18.27;10.55;;;;;;;;;;5005793;28;20425;-68
2022/03/20 02:59:45;;;;;;;18.42;10.73;;;;;;;;;;5001238;28;20552;-67
2022/03/20 03:02:13;;;;;;;17.20;11.35;;;;;;;;;;5007964;28;20421;-67
2022/03/20 03:04:41;;;;;;;16.67;10.75;;;;;;;;;;5010220;28;20457;-67
2022/03/20 03:07:07;;;;;;;17.73;11.18;;;;;;;;;;4994391;28;20718;-67
2022/03/20 03:12:18;;;;;;;15.40;11.35;;;;;;;;;;5008090;28;20639;-66
2022/03/20 03:17:29;;;;;;;16.90;11.80;;;;;;;;;;5021630;28;20432;-67
2022/03/20 03:19:55;;;;;;;18.55;11.48;;;;;;;;;;5028158;28;20437;-67
2022/03/20 03:22:22;;;;;;;17.10;11.13;;;;;;;;;;4998833;28;20878;-67
2022/03/20 03:24:48;;;;;;;15.53;11.20;;;;;;;;;;5006091;28;20529;-67
2022/03/20 03:27:14;;;;;;;18.90;11.05;;;;;;;;;;5002192;28;20460;-67
2022/03/20 03:29:40;;;;;;;19.48;12.45;;;;;;;;;;4996733;28;20453;-67
2022/03/20 03:32:07;;;;;;;20.90;12.68;;;;;;;;;;5008874;28;20429;-67
2022/03/20 03:37:20;;;;;;;20.70;11.55;;;;;;;;;;5001254;28;20437;-67
2022/03/20 03:39:47;;;;;;;19.20;12.10;;;;;;;;;;5001348;28;20466;-67
2022/03/20 03:42:14;;;;;;;18.90;12.60;;;;;;;;;;5007584;28;20428;-67
2022/03/20 03:44:40;;;;;;;18.67;12.48;;;;;;;;;;5008016;28;20436;-67
2022/03/20 03:47:06;;;;;;;18.43;12.40;;;;;;;;;;5007983;28;20457;-67
2022/03/20 03:49:36;;;;;;;19.15;12.73;;;;;;;;;;5004490;28;20428;-67
2022/03/20 03:52:03;;;;;;;17.17;12.63;;;;;;;;;;5014020;28;20804;-67
2022/03/20 03:54:29;;;;;;;18.13;13.18;;;;;;;;;;5006535;28;20428;-67
2022/03/20 03:56:55;;;;;;;18.67;13.32;;;;;;;;;;5005268;28;20502;-67
2022/03/20 03:59:21;;;;;;;20.43;13.50;;;;;;;;;;5001827;28;20513;-67
2022/03/20 04:01:48;;;;;;;20.50;13.00;;;;;;;;;;5010464;28;20567;-67
2022/03/20 04:04:14;;;;;;;18.48;12.55;;;;;;;;;;5005685;28;20504;-66
2022/03/20 04:06:41;;;;;;;19.90;12.90;;;;;;;;;;5002869;28;20932;-66
2022/03/20 04:09:07;;;;;;;20.98;13.18;;;;;;;;;;4993499;28;20425;-66
2022/03/20 04:11:33;;;;;;;21.30;13.90;;;;;;;;;;5007514;28;20430;-66
2022/03/20 04:13:59;;;;;;;18.20;12.90;;;;;;;;;;5006612;28;20417;-67
2022/03/20 04:16:25;;;;;;;20.00;13.10;;;;;;;;;;5002629;28;20425;-67
2022/03/20 04:18:51;;;;;;;20.17;13.40;;;;;;;;;;5007938;28;20413;-67
2022/03/20 04:21:18;;;;;;;19.13;13.38;;;;;;;;;;4998150;28;20451;-66
2022/03/20 04:23:49;;;;;;;18.20;13.48;;;;;;;;;;4999022;28;20428;-67
2022/03/20 04:26:17;;;;;;;21.08;14.48;;;;;;;;;;5012207;28;20509;-67
2022/03/20 04:28:44;;;;;;;21.23;13.88;;;;;;;;;;5013042;28;20872;-67
2022/03/20 04:31:16;;;;;;;19.65;13.70;;;;;;;;;;4999048;28;20441;-67
2022/03/20 04:33:45;;;;;;;22.33;14.02;;;;;;;;;;5005862;28;20454;-67
2022/03/20 04:36:11;;;;;;;23.88;13.68;;;;;;;;;;5006770;28;20700;-67
2022/03/20 04:38:38;;;;;;;22.15;14.13;;;;;;;;;;5006790;28;20455;-67
2022/03/20 04:41:05;;;;;;;21.52;14.68;;;;;;;;;;5006387;28;20558;-67
2022/03/20 04:43:31;;;;;;;20.38;14.43;;;;;;;;;;5007715;28;20441;-67
2022/03/20 04:45:58;;;;;;;19.90;13.68;;;;;;;;;;4994617;28;20425;-67
2022/03/20 04:59:23;;;;;;;22.15;15.15;;;;;;;;;;4996949;28;20465;-66
2022/03/20 05:01:50;;;;;;;23.33;15.40;;;;;;;;;;5008331;28;20438;-67
2022/03/20 05:04:16;;;;;;;21.38;15.95;;;;;;;;;;5014226;28;20424;-67
2022/03/20 05:06:45;;;;;;;22.73;15.63;;;;;;;;;;4994424;28;20434;-67
2022/03/20 05:14:41;;;;;;;22.25;15.05;;;;;;;;;;5005072;28;20431;-66
2022/03/20 05:17:08;;;;;;;23.43;15.37;;;;;;;;;;4999202;28;20457;-66
2022/03/20 05:19:35;;;;;;;23.90;15.37;;;;;;;;;;5021724;28;20497;-67
2022/03/20 05:22:02;;;;;;;24.43;15.00;;;;;;;;;;5000932;28;20497;-66
2022/03/20 05:24:31;;;;;;;25.00;16.25;;;;;;;;;;5035127;28;20481;-66
2022/03/20 05:26:57;;;;;;;22.65;15.93;;;;;;;;;;5007891;28;20490;-67
2022/03/20 05:29:23;;;;;;;23.57;16.53;;;;;;;;;;4998521;28;20421;-66
2022/03/20 05:31:49;;;;;;;23.73;16.70;;;;;;;;;;5005309;28;20429;-67
2022/03/20 05:34:19;;;;;;;22.58;15.15;;;;;;;;;;5007794;28;20428;-67
2022/03/20 05:36:49;;;;;;;24.42;16.08;;;;;;;;;;5004178;28;20478;-66
2022/03/20 05:39:15;;;;;;;24.10;16.23;;;;;;;;;;4974322;28;20473;-67
2022/03/20 05:41:51;;;;;;;21.85;16.23;;;;;;;;;;5003845;28;20445;-67
2022/03/20 05:44:22;;;;;;;22.80;16.33;;;2.60;99.90;;;;;;4991228;28;20434;-67
2022/03/20 05:46:49;;;;;;;22.75;15.93;;;;;;;;;;5006873;28;20720;-67
2022/03/20 05:49:22;;;;;;;22.40;16.27;;;;;;;;;;5004175;28;20466;-67
2022/03/20 05:51:49;;;;;;;23.23;15.70;;;;;;;;;;5002464;28;20436;-67
2022/03/20 05:54:16;;;;;;;23.40;16.70;;;2.50;99.90;;;;;;4995779;28;20818;-67
2022/03/20 05:59:28;;;;;;;22.60;16.65;;;;;;;;;;5001879;28;20422;-67
2022/03/20 06:01:54;;;;;;;24.38;15.98;;;;;;;;;;5006854;28;20448;-67
2022/03/20 06:04:21;;;;;;;26.05;16.83;;;;;;;;;;5010519;28;20429;-67
2022/03/20 06:06:50;;;;;;;26.38;16.70;;;;;;;;;;4997718;28;20434;-67
2022/03/20 06:09:16;;;;;;;22.50;16.45;;;;;;;;;;5039578;28;20432;-68
2022/03/20 06:11:43;;;;;;;23.42;16.80;;;2.50;99.90;;;;;;5004268;28;20571;-67
2022/03/20 06:14:09;;;;;;;23.63;17.30;;;;;;;;;;5007928;28;20416;-67
2022/03/20 06:16:36;;;;;;;25.83;17.40;;;;;;;;;;5011980;28;20421;-67
2022/03/20 06:19:02;;;;;;;25.38;17.20;;;;;;;;;;5008066;28;20474;-67
2022/03/20 06:21:28;;;;;;;29.48;17.20;;;;;;;;;;4993828;28;20454;-67
2022/03/20 06:23:55;;;;;;;24.50;16.45;;;;;;;;;;5001578;28;20684;-68
2022/03/20 06:26:24;;;;;;;23.55;16.98;;;;;;;;;;5009798;28;20925;-67
2022/03/20 06:28:54;;;;;;;22.25;16.60;;;;;;;;;;5005576;28;20466;-67
2022/03/20 06:31:20;;;;;;;22.35;17.67;;;;;;;;;;4995776;28;20433;-67
2022/03/20 06:33:47;;;;;;;24.73;16.67;;;;;;;;;;4997978;28;20433;-67
2022/03/20 06:36:14;;;;;;;25.63;17.33;;;;;;;;;;4988100;28;20528;-67
2022/03/20 06:38:41;;;;;;;25.23;17.23;;;;;;;;;;5011790;28;20462;-67
2022/03/20 06:41:08;;;;;;;25.67;18.10;;;;;;;;;;5001099;28;20448;-67
2022/03/20 06:43:37;;;;;;;24.60;17.25;;;;;;;;;;4995704;28;20504;-68
2022/03/20 06:46:06;;;;;;;24.80;18.67;;;;;;;;;;4999877;28;20512;-67
2022/03/20 06:48:33;;;;;;;24.00;17.73;;;;;;;;;;5004193;28;20454;-67
2022/03/20 06:50:59;;;;;;;24.30;17.17;;;;;;;;;;4999395;28;20482;-67
2022/03/20 06:53:25;;;;;;;26.27;19.30;;;;;;;;;;4998436;28;20433;-68
2022/03/20 06:55:52;;;;;;;23.30;18.40;;;;;;;;;;5011436;28;20743;-68
2022/03/20 06:58:21;;;;;;;26.23;18.63;;;;;;;;;;4991388;28;20458;-68
2022/03/20 07:00:47;;;;;;;25.95;18.27;;;;;;;;;;5007168;28;20433;-68
2022/03/20 07:03:13;;;;;;;24.05;18.20;;;;;;;;;;5002520;28;20444;-68
2022/03/20 07:05:39;;;;;;;24.75;18.38;;;;;;;;;;5005163;28;21109;-68
2022/03/20 07:08:06;;;;;;;25.52;16.92;;;;;;;;;;5008525;28;20841;-67
2022/03/20 07:10:33;;;;;;;24.63;17.65;;;;;;;;;;5002243;28;20531;-68
2022/03/20 07:15:45;;;;;;;23.42;18.10;;;;;;;;;;5003827;28;20429;-68
2022/03/20 07:18:12;;;;;;;24.02;17.55;;;;;;;;;;5009356;28;20417;-68
2022/03/20 07:20:39;;;;;;;25.50;17.33;;;;;;;;;;5006186;28;20825;-68
2022/03/20 07:23:09;;;;;;;23.55;17.60;;;;;;;;;;5007161;28;20424;-68
2022/03/20 07:31:12;;;;;;;25.35;17.67;;;;;;;;;;5003988;28;20431;-67
2022/03/20 07:33:39;;;;;;;30.17;16.83;;;;;;;;;;5007249;28;20500;-67
2022/03/20 07:36:06;;;;;;;22.52;16.70;;;;;;;;;;5001091;28;20713;-66
2022/03/20 07:38:32;;;;;;;23.25;17.80;;;;;;;;;;5011821;28;20425;-67
2022/03/20 07:40:58;;;;;;;22.73;17.50;;;;;;;;;;5013619;28;20452;-66
2022/03/20 07:43:26;;;;;;;22.40;17.13;;;;;;;;;;4996787;28;20433;-67
2022/03/20 07:45:53;;;;;;;24.13;17.70;;;;;;;;;;5006749;28;20440;-67
2022/03/20 07:48:23;;;;;;;23.48;17.65;;;;;;;;;;4991934;28;22275;-68
2022/03/20 07:50:50;;;;;;;23.50;18.13;;;;;;;;;;5011035;28;20505;-67
2022/03/20 07:53:17;;;;;;;23.85;17.83;;;;;;;;;;5008037;28;20428;-67
2022/03/20 07:55:43;;;;;;;24.48;18.30;;;;;;;;;;4997970;28;20442;-68
2022/03/20 07:58:09;;;;;;;23.80;17.55;;;;;;;;;;4990430;28;20810;-67
2022/03/20 08:00:38;;;;;;;21.67;18.00;;;;;;;;;;5002159;28;20525;-67
2022/03/20 08:03:05;;;;;;;23.08;17.52;;;;;;;;;;5012794;28;20456;-68
2022/03/20 08:05:31;;;;;;;25.80;17.58;;;;;;;;;;4988133;28;20480;-68
2022/03/20 08:07:58;;;;;;;23.87;17.30;;;;;;;;;;5007791;28;20421;-68
2022/03/20 08:10:24;;;;;;;24.00;17.73;;;;;;;;;;4987071;28;20427;-68
2022/03/20 08:12:50;;;;;;;23.60;17.73;;;;;;;;;;5006794;28;20438;-68
2022/03/20 08:15:17;;;;;;;25.02;17.55;;;;;;;;;;4998887;28;20425;-68
2022/03/20 08:17:50;;;;;;;24.55;18.13;;;;;;;;;;5005990;28;20436;-68
2022/03/20 08:20:16;;;;;;;23.40;17.77;;;;;;;;;;5000243;28;20437;-68
2022/03/20 08:22:42;;;;;;;24.67;17.80;;;;;;;;;;4996635;28;20447;-68
2022/03/20 08:25:10;;;;;;;23.93;18.40;;;;;;;;;;5014070;28;20507;-68
2022/03/20 08:27:45;;;;;;;25.10;18.40;;;;;;;;;;5013620;28;20531;-68
2022/03/20 08:30:15;;;;;;;25.83;18.63;;;;;;;;;;5001894;28;20475;-68
2022/03/20 08:32:41;;;;;;;24.65;18.40;;;;;;;;;;5010793;28;20454;-68
2022/03/20 08:35:08;;;;;;;25.77;18.13;;;;;;;;;;5036851;28;20429;-68
2022/03/20 08:37:35;;;;;;;23.83;18.80;;;;;;;;;;5000369;28;20440;-67
2022/03/20 08:40:02;;;;;;;24.40;18.13;;;;;;;;;;5012068;28;20428;-68
2022/03/20 08:42:29;;;;;;;23.42;18.63;;;;;;;;;;4999863;28;20427;-68
2022/03/20 08:44:55;;;;;;;23.02;18.20;;;;;;;;;;4990622;28;20428;-68
2022/03/20 08:47:21;;;;;;;24.92;17.92;;;;;;;;;;5002652;28;20428;-68
2022/03/20 08:49:49;;;;;;;24.48;18.40;;;;;;;;;;5008500;28;20421;-68
2022/03/20 08:52:15;;;;;;;24.15;18.90;;;;;;;;;;4993285;28;20508;-68
2022/03/20 08:54:42;;;;;;;25.43;18.33;;;;;;;;;;5008941;28;20519;-69
2022/03/20 08:57:08;;;;;;;25.10;18.92;;;;;;;;;;4996294;28;20507;-68
2022/03/20 08:59:34;;;;;;;26.00;19.08;;;;;;;;;;5005326;28;20413;-68
2022/03/20 09:02:01;;;;;;;25.67;19.17;;;;;;;;;;5005134;28;21196;-68
2022/03/20 09:04:27;;;;;;;25.83;18.85;;;;;;;;;;4996637;28;20838;-69
2022/03/20 09:06:53;;;;;;;27.58;19.10;;;;;;;;;;5015078;28;20433;-68
2022/03/20 09:09:19;;;;;;;25.67;18.25;;;;;;;;;;4995706;28;20425;-69
2022/03/20 09:11:46;;;;;;;26.77;18.73;;;;;;;;;;5001608;28;20423;-69
2022/03/20 09:14:12;;;;;;;25.45;18.80;;;;;;;;;;4989247;28;21411;-68
2022/03/20 09:19:23;;;;;;;28.02;20.00;;;;;;;;;;5006773;28;20428;-68
2022/03/20 09:21:49;;;;;;;26.42;20.27;;;;;;;;;;5011566;28;20433;-68
2022/03/20 09:24:15;;;;;;;26.17;20.30;;;6.80;99.90;;;;;;5015072;28;20453;-68
2022/03/20 09:26:42;;;;;;;26.58;19.40;;;;;;;;;;5008559;28;20413;-68
2022/03/20 09:29:08;;;;;;;25.42;18.73;;;;;;;;;;5004522;28;20443;-68
2022/03/20 09:31:34;;;;;;;28.27;18.98;;;;;;;;;;4996094;28;20508;-68
2022/03/20 09:34:03;;;;;;;25.85;20.08;;;;;;;;;;4997494;28;20513;-68
2022/03/20 09:36:30;;;;;;;25.77;20.40;;;;;;;;;;5002940;28;20994;-68
2022/03/20 09:38:56;;;;;;;27.33;19.88;;;;;;;;;;5007191;28;20427;-68
2022/03/20 09:41:27;;;;;;;28.58;19.13;;;;;;;;;;4998537;28;20452;-69
2022/03/20 09:43:53;;;;;;;24.55;20.15;;;;;;;;;;5005289;28;20437;-68
2022/03/20 09:46:21;;;;;;;27.57;19.57;;;;;;;;;;4987208;28;20518;-68
2022/03/20 09:48:47;;;;;;;26.63;20.10;;;;;;;;;;5004997;28;20717;-68
2022/03/20 09:51:14;;;;;;;24.30;19.83;;;;;;;;;;4990694;28;20497;-68
2022/03/20 09:53:40;;;;;;;25.48;19.77;;;;;;;;;;4993071;28;20508;-68
2022/03/20 09:56:10;;;;;;;26.70;19.58;;;;;;;;;;5012966;28;20417;-68
2022/03/20 09:58:36;;;;;;;26.42;19.77;;;;;;;;;;5003285;28;20415;-68
2022/03/20 10:01:02;;;;;;;27.40;19.30;;;;;;;;;;5003717;28;20494;-68
2022/03/20 10:03:28;;;;;;;26.38;20.75;;;;;;;;;;5007991;28;20421;-68
2022/03/20 10:06:07;;;;;;;27.20;20.67;;;;;;;;;;5006193;28;20779;-68
2022/03/20 10:08:34;;;;;;;26.13;19.33;;;;;;;;;;5001387;28;20459;-74
2022/03/20 10:11:13;;;;;;;28.02;19.48;;;;;;;;;;4991053;28;20458;-69
2022/03/20 10:14:01;;;;;;;26.05;19.23;;;;;;;;;;5010810;28;20437;-68
2022/03/20 10:16:27;;;;;;;28.00;21.25;;;;;;;;;;4995356;28;20474;-68
2022/03/20 10:18:53;;;;;;;28.13;20.10;;;;;;;;;;5003684;28;20429;-69
2022/03/20 10:21:19;;;;;;;26.63;20.20;;;;;;;;;;5022176;28;20475;-69
2022/03/20 10:23:46;;;;;;;26.77;19.73;;;;;;;;;;4993178;28;20440;-70
2022/03/20 10:26:19;;;;;;;27.45;20.50;;;;;;;;;;4990229;28;20426;-69
2022/03/20 10:28:47;;;;;;;28.67;21.45;;;;;;;;;;5012108;28;20440;-69
2022/03/20 10:31:20;;;;;;;25.45;21.85;;;;;;;;;;4995007;28;20585;-69
2022/03/20 10:34:04;;;;;;;27.40;20.83;;;;;;;;;;4993873;28;20495;-69
2022/03/20 10:36:30;;;;;;;28.60;21.08;;;;;;;;;;5015881;28;21158;-69
2022/03/20 10:38:56;;;;;;;28.08;21.30;;;;;;;;;;5008997;28;20475;-69
2022/03/20 10:41:25;;;;;;;27.90;22.10;;;;;;;;;;5005020;28;20454;-69
2022/03/20 10:43:52;;;;;;;28.55;21.02;;;;;;;;;;4992026;28;21001;-69
2022/03/20 10:46:19;;;;;;;28.08;20.63;;;;;;;;;;4989121;28;20516;-69
2022/03/20 10:48:46;;;;;;;25.90;20.07;;;;;;;;;;4997526;28;20505;-69
2022/03/20 10:51:13;;;;;;;28.25;21.65;;;;;;;;;;5026749;28;20432;-68
2022/03/20 10:53:53;;;;;;;30.73;21.73;;;;;;;;;;5005245;28;20427;-69
2022/03/20 10:56:19;;;;;;;31.80;21.30;;;;;;;;;;5008465;28;20440;-69
2022/03/20 10:58:45;;;;;;;30.40;22.20;;;;;;;;;;4978335;28;20579;-69
2022/03/20 11:01:12;;;;;;;30.23;22.10;;;;;;;;;;4988426;28;20463;-69
2022/03/20 11:03:43;;;;;;;29.65;21.92;;;;;;;;;;4990800;28;20449;-69
2022/03/20 11:06:10;;;;;;;28.42;21.50;;;;;;;;;;4997206;28;20422;-69
2022/03/20 11:08:39;;;;;;;28.45;22.35;;;;;;;;;;5021465;28;20436;-69
2022/03/20 11:11:10;;;;;;;30.27;22.95;;;;;;;;;;4988557;28;20447;-69
2022/03/20 11:13:37;;;;;;;27.05;21.25;;;;;;;;;;4990922;28;20428;-69
2022/03/20 11:16:08;;;;;;;32.60;23.23;;;;;;;;;;5001045;28;20429;-69
2022/03/20 11:18:35;;;;;;;26.73;22.07;;;;;;;;;;4983931;28;20438;-69
2022/03/20 11:21:03;;;;;;;29.08;23.15;;;;;;;;;;4998472;28;20439;-69
2022/03/20 11:23:30;;;;;;;28.67;21.97;;;;;;;;;;4989716;28;20621;-69
2022/03/20 11:25:57;;;;;;;28.35;21.80;;;;;;;;;;5005560;28;20425;-69
2022/03/20 11:28:24;;;;;;;29.75;21.85;;;10.40;99.90;;;;;;5002670;28;20439;-69
2022/03/20 11:30:51;;;;;;;28.30;23.00;;;;;;;;;;5001767;28;20431;-69
2022/03/20 11:33:21;;;;;;;29.77;22.38;;;;;;;;;;5023443;28;20436;-68
2022/03/20 11:35:47;;;;;;;27.60;22.33;;;;;;;;;;4998765;28;20979;-69
2022/03/20 11:38:20;;;;;;;31.05;21.30;;;;;;;;;;4995432;28;20415;-68
2022/03/20 11:41:05;;;;;;;28.35;21.75;;;;;;;;;;4990230;28;20462;-68
2022/03/20 11:43:31;;;;;;;29.75;21.92;;;;;;;;;;5008912;28;20457;-69
2022/03/20 11:46:21;;;;;;;27.52;23.67;;;;;;;;;;5002743;28;20493;-69
2022/03/20 11:49:29;;;;;;;30.13;22.80;;;;;;;;;;4992517;28;20437;-69
2022/03/20 11:52:07;;;;;;;30.33;22.30;;;;;;;;;;5053806;28;20808;-68
2022/03/20 11:54:42;;;;;;;29.20;23.23;;;;;;;;;;5041581;28;20438;-70
2022/03/20 11:57:27;;;;;;;28.77;22.73;;;;;;;;;;4989424;28;20427;-69
2022/03/20 11:59:57;;;;;;;25.90;22.17;;;;;;;;;;5028255;28;20441;-69
2022/03/20 12:02:46;;;;;;;27.30;21.88;;;;;;;;;;4997574;28;21013;-69
2022/03/20 12:05:21;;;;;;;29.27;22.77;;;;;;;;;;5037776;28;20864;-69
2022/03/20 12:07:55;;;;;;;28.08;21.77;;;;;;;;;;5000480;28;20440;-69
2022/03/20 12:10:21;;;;;;;27.90;22.90;;;;;;;;;;4996847;28;20472;-69
2022/03/20 12:12:54;;;;;;;32.20;22.52;;;;;;;;;;4977761;28;20433;-68
2022/03/20 12:15:23;;;;;;;28.85;22.35;;;;;;;;;;5026369;28;20448;-68
2022/03/20 12:17:58;;;;;;;29.75;20.98;;;;;;;;;;5002041;28;20502;-68
2022/03/20 12:20:43;;;;;;;29.05;22.92;;;;;;;;;;5011072;28;20436;-68
2022/03/20 12:23:28;;;;;;;31.10;23.00;;;;;;;;;;4996147;28;20457;-73
2022/03/20 12:25:54;;;;;;;29.77;21.55;;;;;;;;;;4987035;28;20443;-69
2022/03/20 12:28:30;;;;;;;31.10;22.50;;;;;;;;;;4989379;28;20535;-68
2022/03/20 12:30:57;;;;;;;26.77;22.20;;;;;;;;;;5004786;28;20441;-68
2022/03/20 12:33:24;;;;;;;28.15;22.27;;;;;;;;;;5002563;28;20462;-68
2022/03/20 12:35:51;;;;;;;27.67;21.48;;;;;;;;;;5004425;28;21014;-68
2022/03/20 12:38:50;;;;;;;30.58;22.75;;;;;;;;;;4999126;28;20438;-68
2022/03/20 12:41:19;;;;;;;31.70;22.30;;;;;;;;;;4981773;28;20493;-69
2022/03/20 12:44:10;;;;;;;26.60;22.67;;;;;;;;;;5010752;28;20417;-69
2022/03/20 12:46:37;;;;;;;30.17;23.38;;;;;;;;;;5007880;28;20428;-68
2022/03/20 12:49:04;;;;;;;27.67;23.08;;;;;;;;;;4995692;28;20496;-68
2022/03/20 12:51:35;;;;;;;32.33;22.58;;;11.10;99.90;;;;;;5003777;28;20423;-68
2022/03/20 12:54:05;;;;;;;30.17;22.53;;;;;;;;;;4998460;28;20433;-68
2022/03/20 12:56:32;;;;;;;28.05;23.02;;;;;;;;;;5002503;28;20508;-68
2022/03/20 12:58:59;;;;;;;26.08;21.25;;;;;;;;;;5004850;28;20432;-69
2022/03/20 13:01:26;;;;;;;29.53;22.60;;;;;;;;;;5008101;28;20447;-68
2022/03/20 13:03:53;;;;;;;26.73;21.50;;;;;;;;;;4991114;28;20463;-69
2022/03/20 13:06:19;;;;;;;30.55;22.95;;;;;;;;;;4998572;28;20465;-69
2022/03/20 13:08:46;;;;;;;28.98;22.20;;;;;;;;;;5003411;28;20423;-69
2022/03/20 13:14:04;;;;;;;31.90;22.30;;;;;;;;;;5009298;28;20496;-69
2022/03/20 13:16:30;;;;;;;30.95;22.75;;;;;;;;;;4998704;28;20456;-70
2022/03/20 13:18:57;;;;;;;29.23;23.05;;;;;;;;;;4993812;28;20442;-69
2022/03/20 13:21:23;;;;;;;29.55;21.90;;;;;;;;;;4989424;28;20458;-69
2022/03/20 13:23:49;;;;;;;28.58;22.25;;;;;;;;;;4994234;28;20976;-70
2022/03/20 13:26:20;;;;;;;29.17;22.55;;;;;;;;;;5002418;28;20521;-69
2022/03/20 13:28:47;;;;;;;29.88;22.23;;;;;;;;;;4995473;28;20837;-68
2022/03/20 13:31:16;;;;;;;28.27;22.15;;;;;;;;;;5003661;28;20429;-68
2022/03/20 13:33:53;;;;;;;28.83;22.77;;;;;;;;;;4987279;28;20442;-69
2022/03/20 13:36:23;;;;;;;30.20;24.58;;;;;;;;;;4982966;28;20474;-68
2022/03/20 13:38:51;;;;;;;33.20;23.02;;;;;;;;;;5001858;28;20479;-69
2022/03/20 13:41:21;;;;;;;30.50;24.00;;;;;;;;;;5002483;28;20472;-69
2022/03/20 13:43:48;;;;;;;29.63;22.88;;;;;;;;;;5005276;28;20440;-70
2022/03/20 13:46:16;;;;;;;28.60;21.57;;;;;;;;;;5006128;28;20461;-69
2022/03/20 13:48:43;;;;;;;28.60;23.00;;;10.90;99.90;;;;;;5003297;28;20542;-70
2022/03/20 13:51:09;;;;;;;29.83;22.10;;;;;;;;;;4988618;28;20509;-70
2022/03/20 13:53:36;;;;;;;29.90;22.92;;;;;;;;;;5027304;28;20554;-70
2022/03/20 13:56:02;;;;;;;28.90;22.45;;;;;;;;;;4999705;28;20429;-70
2022/03/20 13:58:28;;;;;;;27.77;23.13;;;;;;;;;;5000282;28;20413;-70
2022/03/20 14:01:01;;;;;;;29.00;23.27;;;;;;;;;;5007888;28;20448;-70
2022/03/20 14:03:30;;;;;;;29.90;22.90;;;;;;;;;;4993433;28;20436;-70
2022/03/20 14:05:57;;;;;;;28.42;22.48;;;;;;;;;;4994848;28;20435;-70
2022/03/20 14:08:23;;;;;;;29.35;22.58;;;;;;;;;;5033940;28;20444;-69
2022/03/20 14:10:53;;;;;;;31.88;22.50;;;;;;;;;;4996470;28;20467;-70
2022/03/20 14:13:21;;;;;;;29.70;22.83;;;;;;;;;;5001360;28;20458;-70
2022/03/20 14:16:11;;;;;;;29.42;23.02;;;10.80;99.90;;;;;;5002238;28;20439;-70
2022/03/20 14:18:55;;;;;;;29.83;22.98;;;;;;;;;;4998074;28;20449;-70
2022/03/20 14:21:21;;;;;;;29.20;22.15;;;;;;;;;;5006596;28;20474;-70
2022/03/20 14:23:56;;;;;;;29.02;20.92;;;;;;;;;;5006082;28;20496;-70
2022/03/20 14:26:23;;;;;;;28.88;23.13;;;;;;;;;;5001756;28;20501;-70
2022/03/20 14:29:08;;;;;;;27.65;21.48;;;;;;;;;;4994677;28;20439;-70
2022/03/20 14:40:10;;;;;;;28.38;22.85;;;;;;;;;;4997008;28;20915;-69
2022/03/20 14:42:38;;;;;;;27.95;22.10;;;;;;;;;;5006056;28;20527;-69
2022/03/20 14:45:05;;;;;;;29.05;21.95;;;;;;;;;;5035692;28;20501;-69
2022/03/20 14:47:31;;;;;;;30.17;21.88;;;;;;;;;;4993868;28;20474;-69
2022/03/20 14:49:57;;;;;;;29.08;21.90;;;;;;;;;;5008839;28;20508;-69
2022/03/20 14:52:24;;;;;;;29.52;22.58;;;11.50;99.90;;;;;;4995830;28;20438;-69
2022/03/20 14:54:54;;;;;;;29.70;21.63;;;;;;;;;;5006688;28;20440;-69
2022/03/20 14:57:20;;;;;;;28.70;22.00;;;;;;;;;;4996261;28;20434;-69
2022/03/20 14:59:47;;;;;;;26.85;22.00;;;;;;;;;;5007340;28;20848;-69
2022/03/20 15:02:13;;;;;;;28.30;21.48;;;;;;;;;;4983250;28;20424;-69
2022/03/20 15:04:41;;;;;;;29.45;23.00;;;;;;;;;;4999409;28;20523;-70
2022/03/20 15:07:07;;;;;;;28.00;21.23;;;;;;;;;;4989004;28;21274;-70
2022/03/20 15:12:18;;;;;;;30.25;21.33;;;;;;;;;;4998468;28;20926;-69